createdAt,value
2019-03-02T00:03:25.580Z,19.10
2019-03-02T00:05:51.432Z,23.00
2019-03-02T00:08:17.265Z,20.70
2019-03-02T00:10:44.575Z,21.83
2019-03-02T00:13:10.848Z,21.23
2019-03-02T00:15:36.661Z,23.37
2019-03-02T00:18:02.497Z,22.07
2019-03-02T00:20:28.310Z,21.37
2019-03-02T00:22:54.122Z,22.90
2019-03-02T00:25:19.943Z,21.83
2019-03-02T00:27:46.175Z,21.30
2019-03-02T00:30:31.877Z,27.37
2019-03-02T00:33:19.675Z,23.63
2019-03-02T00:35:45.522Z,21.23
2019-03-02T00:38:11.369Z,20.37
2019-03-02T00:40:37.274Z,20.30
2019-03-02T00:43:03.189Z,20.90
2019-03-02T00:45:29.003Z,21.47
2019-03-02T00:47:54.860Z,20.57
2019-03-02T00:53:27.916Z,23.20
2019-03-02T00:55:53.729Z,21.77
2019-03-02T00:58:19.573Z,22.30
2019-03-02T01:00:45.377Z,22.23
2019-03-02T01:03:12.040Z,22.57
2019-03-02T01:05:38.911Z,23.07
2019-03-02T01:08:25.024Z,21.40
2019-03-02T01:10:50.835Z,22.33
2019-03-02T01:13:19.512Z,21.70
2019-03-02T01:15:44.899Z,22.33
2019-03-02T01:18:31.991Z,20.97
2019-03-02T01:21:00.467Z,23.70
2019-03-02T01:23:27.567Z,23.17
2019-03-02T01:25:53.279Z,22.80
2019-03-02T01:28:19.087Z,24.33
2019-03-02T01:30:44.907Z,22.47
2019-03-02T01:33:10.712Z,21.10
2019-03-02T01:35:36.542Z,22.20
2019-03-02T01:38:02.350Z,21.50
2019-03-02T01:40:28.173Z,22.40
2019-03-02T01:42:54.000Z,20.73
2019-03-02T01:45:19.817Z,21.93
2019-03-02T01:47:50.466Z,22.87
2019-03-02T01:50:33.245Z,21.97
2019-03-02T01:52:59.077Z,24.17
2019-03-02T01:56:07.052Z,25.17
2019-03-02T01:58:32.882Z,24.60
2019-03-02T02:00:58.703Z,25.67
2019-03-02T02:03:24.517Z,24.50
2019-03-02T02:05:50.310Z,24.30
2019-03-02T02:08:16.152Z,25.80
2019-03-02T02:10:43.417Z,24.20
2019-03-02T02:13:09.725Z,27.00
2019-03-02T02:15:35.558Z,25.63
2019-03-02T02:18:01.386Z,29.17
2019-03-02T02:20:27.211Z,30.30
2019-03-02T02:22:53.052Z,27.30
2019-03-02T02:26:00.503Z,29.30
2019-03-02T02:28:29.109Z,28.40
2019-03-02T02:30:54.071Z,30.63
2019-03-02T02:33:19.887Z,27.37
2019-03-02T02:35:45.700Z,27.80
2019-03-02T02:38:16.171Z,25.17
2019-03-02T02:40:39.250Z,24.60
2019-03-02T02:43:05.083Z,23.00
2019-03-02T02:45:30.897Z,21.60
2019-03-02T02:47:56.769Z,20.97
2019-03-02T02:50:29.141Z,20.70
2019-03-02T02:52:50.298Z,21.37
2019-03-02T02:55:16.133Z,20.10
2019-03-02T02:57:41.948Z,21.27
2019-03-02T03:00:27.642Z,19.70
2019-03-02T03:02:53.484Z,21.60
2019-03-02T03:06:00.989Z,20.80
2019-03-02T03:08:46.695Z,21.40
2019-03-02T03:11:54.167Z,19.00
2019-03-02T03:14:21.407Z,19.47
2019-03-02T03:16:49.467Z,19.87
2019-03-02T03:19:15.451Z,20.87
2019-03-02T03:21:41.276Z,21.97
2019-03-02T03:24:07.075Z,20.07
2019-03-02T03:26:35.271Z,22.20
2019-03-02T03:29:05.362Z,22.00
2019-03-02T03:31:31.583Z,21.43
2019-03-02T03:33:56.110Z,20.23
2019-03-02T03:36:21.942Z,23.30
2019-03-02T03:38:47.760Z,20.40
2019-03-02T03:41:13.865Z,20.50
2019-03-02T03:43:42.562Z,20.00
2019-03-02T03:46:07.417Z,19.60
2019-03-02T03:48:33.280Z,21.40
2019-03-02T03:50:59.098Z,20.30
2019-03-02T03:53:26.496Z,21.07
2019-03-02T03:55:52.754Z,22.00
2019-03-02T03:58:18.611Z,19.83
2019-03-02T04:00:44.418Z,20.30
2019-03-02T04:03:13.736Z,20.73
2019-03-02T04:05:42.120Z,20.77
2019-03-02T04:08:05.708Z,19.63
2019-03-02T04:10:31.532Z,19.70
2019-03-02T04:13:04.227Z,19.07
2019-03-02T04:15:25.089Z,20.60
2019-03-02T04:17:50.897Z,20.00
2019-03-02T04:20:37.105Z,19.80
2019-03-02T04:23:44.602Z,19.27
2019-03-02T04:26:10.422Z,21.13
2019-03-02T04:28:36.243Z,20.20
2019-03-02T04:31:04.645Z,19.20
2019-03-02T04:33:29.800Z,19.80
2019-03-02T04:35:55.731Z,20.17
2019-03-02T04:38:21.560Z,21.73
2019-03-02T04:40:47.402Z,20.63
2019-03-02T04:43:13.221Z,20.87
2019-03-02T04:45:39.678Z,21.23
2019-03-02T04:48:06.848Z,22.20
2019-03-02T04:50:32.673Z,20.50
2019-03-02T04:52:58.510Z,23.20
2019-03-02T04:55:24.337Z,22.80
2019-03-02T04:57:50.175Z,24.77
2019-03-02T05:00:57.662Z,23.63
2019-03-02T05:03:23.498Z,23.37
2019-03-02T05:05:49.333Z,23.60
2019-03-02T05:08:15.140Z,24.90
2019-03-02T05:10:40.956Z,22.70
2019-03-02T05:13:06.777Z,23.63
2019-03-02T05:15:32.607Z,24.30
2019-03-02T05:17:58.458Z,24.97
2019-03-02T05:20:24.249Z,23.73
2019-03-02T05:22:50.711Z,24.23
2019-03-02T05:25:19.102Z,22.90
2019-03-02T05:27:45.538Z,23.60
2019-03-02T05:30:53.004Z,24.40
2019-03-02T05:33:18.831Z,28.47
2019-03-02T05:35:47.714Z,21.47
2019-03-02T05:38:15.258Z,22.60
2019-03-02T05:40:40.121Z,23.10
2019-03-02T05:43:05.934Z,22.83
2019-03-02T05:45:31.804Z,22.17
2019-03-02T05:48:00.887Z,24.53
2019-03-02T05:50:26.584Z,25.23
2019-03-02T05:52:54.224Z,24.13
2019-03-02T05:55:20.872Z,25.67
2019-03-02T05:57:46.694Z,23.93
2019-03-02T06:00:54.187Z,24.37
2019-03-02T06:03:19.999Z,24.90
2019-03-02T06:05:45.819Z,28.63
2019-03-02T06:08:11.660Z,29.53
2019-03-02T06:10:37.496Z,31.50
2019-03-02T06:13:03.334Z,31.23
2019-03-02T06:15:29.162Z,32.67
2019-03-02T06:17:55.001Z,26.40
2019-03-02T06:20:20.812Z,26.33
2019-03-02T06:22:46.642Z,25.97
2019-03-02T06:25:32.322Z,28.30
2019-03-02T06:27:58.154Z,25.00
2019-03-02T06:30:44.968Z,29.50
2019-03-02T06:33:31.502Z,25.30
2019-03-02T06:36:17.215Z,25.60
2019-03-02T06:39:07.430Z,27.83
2019-03-02T06:41:33.179Z,26.80
2019-03-02T06:43:59.405Z,26.30
2019-03-02T06:46:25.201Z,26.07
2019-03-02T06:48:51.063Z,27.93
2019-03-02T06:51:36.755Z,25.00
2019-03-02T06:54:22.479Z,23.87
2019-03-02T06:56:57.263Z,25.10
2019-03-02T06:59:16.068Z,26.53
2019-03-02T07:01:41.896Z,26.10
2019-03-02T07:04:07.722Z,24.73
2019-03-02T07:06:33.932Z,24.90
2019-03-02T07:09:19.694Z,24.70
2019-03-02T07:11:45.526Z,29.17
2019-03-02T07:14:11.359Z,24.43
2019-03-02T07:16:37.196Z,25.47
2019-03-02T07:19:22.956Z,29.20
2019-03-02T07:24:55.998Z,28.13
2019-03-02T07:27:21.812Z,28.80
2019-03-02T07:29:49.806Z,28.33
2019-03-02T07:32:15.588Z,29.30
2019-03-02T07:34:43.684Z,28.47
2019-03-02T07:37:10.928Z,28.30
2019-03-02T07:39:36.773Z,27.53
2019-03-02T07:45:31.361Z,29.40
2019-03-02T07:48:00.134Z,28.50
2019-03-02T07:50:26.641Z,26.60
2019-03-02T07:52:53.947Z,32.20
2019-03-02T07:55:22.480Z,27.83
2019-03-02T07:57:48.417Z,29.50
2019-03-02T08:00:55.894Z,29.10
2019-03-02T08:03:21.725Z,25.53
2019-03-02T08:05:50.704Z,29.00
2019-03-02T08:08:15.290Z,27.47
2019-03-02T08:10:41.100Z,31.60
2019-03-02T08:13:06.932Z,29.13
2019-03-02T08:15:32.764Z,27.90
2019-03-02T08:17:58.598Z,24.57
2019-03-02T08:20:26.119Z,26.30
2019-03-02T08:23:12.042Z,30.40
2019-03-02T08:25:37.870Z,26.23
2019-03-02T08:28:06.789Z,21.50
2019-03-02T08:30:33.481Z,24.50
2019-03-02T08:32:59.250Z,21.90
2019-03-02T08:35:25.078Z,21.43
2019-03-02T08:37:50.896Z,21.57
2019-03-02T08:40:36.706Z,21.43
2019-03-02T08:43:02.527Z,16.77
2019-03-02T08:45:30.938Z,21.07
2019-03-02T08:47:56.088Z,20.50
2019-03-02T08:50:41.933Z,22.43
2019-03-02T08:53:07.750Z,20.63
2019-03-02T08:55:33.806Z,19.63
2019-03-02T08:58:01.333Z,18.43
2019-03-02T09:01:08.827Z,19.40
2019-03-02T09:03:37.248Z,17.30
2019-03-02T09:06:11.291Z,21.30
2019-03-02T09:08:30.132Z,18.10
2019-03-02T09:11:40.797Z,21.27
2019-03-02T09:14:05.358Z,19.00
2019-03-02T09:16:31.203Z,21.00
2019-03-02T09:18:57.022Z,21.13
2019-03-02T09:21:22.878Z,21.00
2019-03-02T09:23:48.707Z,18.90
2019-03-02T09:26:15.048Z,17.47
2019-03-02T09:28:42.314Z,16.80
2019-03-02T09:31:08.335Z,14.13
2019-03-02T09:33:34.177Z,15.77
2019-03-02T09:36:00.056Z,15.30
2019-03-02T09:38:25.884Z,12.90
2019-03-02T09:40:51.721Z,15.20
2019-03-02T09:43:17.575Z,16.57
2019-03-02T09:45:44.782Z,14.30
2019-03-02T09:48:11.130Z,15.30
2019-03-02T09:50:36.964Z,15.70
2019-03-02T09:53:44.465Z,14.20
2019-03-02T09:56:30.163Z,15.40
2019-03-02T09:58:57.944Z,14.00
2019-03-02T10:01:23.732Z,11.60
2019-03-02T10:03:49.627Z,15.03
2019-03-02T10:06:15.476Z,13.43
2019-03-02T10:08:42.415Z,15.47
2019-03-02T10:11:50.710Z,13.80
2019-03-02T10:14:36.470Z,14.70
2019-03-02T10:17:02.709Z,14.77
2019-03-02T10:19:30.029Z,15.13
2019-03-02T10:21:55.832Z,16.10
2019-03-02T10:24:21.677Z,14.30
2019-03-02T10:26:47.509Z,14.23
2019-03-02T10:29:13.335Z,14.80
2019-03-02T10:31:40.512Z,11.73
2019-03-02T10:34:07.719Z,12.13
2019-03-02T10:36:34.677Z,14.30
2019-03-02T10:39:00.494Z,12.57
2019-03-02T10:41:26.321Z,13.53
2019-03-02T10:43:52.122Z,11.93
2019-03-02T10:46:17.958Z,12.50
2019-03-02T10:48:43.785Z,12.60
2019-03-02T10:51:09.630Z,14.30
2019-03-02T10:53:35.464Z,14.23
2019-03-02T10:56:24.705Z,12.23
2019-03-02T10:58:49.009Z,12.83
2019-03-02T11:01:14.856Z,14.63
2019-03-02T11:03:40.683Z,15.80
2019-03-02T11:06:29.665Z,12.70
2019-03-02T11:09:22.188Z,13.70
2019-03-02T11:12:02.941Z,12.60
2019-03-02T11:15:09.106Z,12.80
2019-03-02T11:20:28.214Z,12.23
2019-03-02T11:23:15.822Z,12.17
2019-03-02T11:26:01.530Z,12.90
2019-03-02T11:31:41.994Z,13.83
2019-03-02T11:34:13.093Z,13.23
2019-03-02T11:36:58.846Z,13.97
2019-03-02T11:39:44.548Z,12.17
2019-03-02T11:45:07.309Z,12.07
2019-03-02T11:47:53.012Z,13.43
2019-03-02T11:50:38.818Z,11.77
2019-03-02T11:53:44.409Z,12.37
2019-03-02T11:56:30.126Z,12.63
2019-03-02T11:59:15.843Z,13.90
2019-03-02T12:02:23.780Z,13.40
2019-03-02T12:05:09.195Z,12.07
2019-03-02T12:07:54.916Z,11.47
2019-03-02T12:10:40.622Z,14.80
2019-03-02T12:13:27.748Z,16.10
2019-03-02T12:16:33.865Z,14.93
2019-03-02T12:19:19.572Z,17.60
2019-03-02T12:22:05.264Z,14.87
2019-03-02T12:27:44.830Z,17.30
2019-03-02T12:30:52.303Z,16.97
2019-03-02T12:41:36.431Z,17.77
2019-03-02T12:44:22.462Z,16.90
2019-03-02T12:47:08.228Z,17.50
2019-03-02T12:49:54.065Z,18.20
2019-03-02T12:58:23.234Z,19.57
2019-03-02T13:08:53.085Z,20.13
2019-03-02T13:11:38.805Z,24.40
2019-03-02T13:14:44.498Z,19.80
2019-03-02T13:17:33.145Z,25.00
2019-03-02T13:20:17.822Z,62.43
2019-03-02T13:25:37.098Z,18.63
2019-03-02T13:28:22.939Z,24.10
2019-03-02T13:31:09.143Z,23.07
2019-03-02T13:33:54.967Z,17.97
2019-03-02T13:37:00.570Z,21.57
2019-03-02T13:39:47.001Z,20.40
2019-03-02T13:42:33.885Z,20.50
2019-03-02T13:45:20.464Z,23.60
2019-03-02T13:48:06.192Z,21.70
2019-03-02T13:50:53.744Z,22.37
2019-03-02T14:01:31.295Z,21.20
2019-03-02T14:04:17.015Z,21.90
2019-03-02T14:07:02.714Z,23.07
2019-03-02T14:12:21.976Z,22.37
2019-03-02T14:15:07.682Z,21.73
2019-03-02T14:17:53.400Z,22.87
2019-03-02T14:23:33.039Z,23.00
2019-03-02T14:26:38.704Z,26.27
2019-03-02T14:29:47.216Z,24.20
2019-03-02T14:32:31.940Z,27.10
2019-03-02T14:37:54.907Z,30.67
2019-03-02T14:43:19.929Z,33.70
2019-03-02T14:48:40.913Z,23.93
2019-03-02T14:51:08.654Z,30.23
2019-03-02T14:53:46.141Z,26.77
2019-03-02T14:56:16.750Z,27.70
2019-03-02T14:58:44.473Z,29.47
2019-03-02T15:01:12.226Z,25.33
2019-03-02T15:03:54.861Z,24.60
2019-03-02T15:06:40.429Z,28.80
2019-03-02T15:09:15.936Z,29.00
2019-03-02T15:11:46.424Z,30.17
2019-03-02T15:14:25.944Z,24.40
2019-03-02T15:16:56.175Z,27.13
2019-03-02T15:19:56.153Z,30.00
2019-03-02T15:22:10.074Z,24.07
2019-03-02T15:24:40.817Z,30.33
2019-03-02T15:27:08.555Z,24.43
2019-03-02T15:29:42.308Z,25.87
2019-03-02T15:32:16.045Z,31.97
2019-03-02T15:34:49.912Z,34.93
2019-03-02T15:37:32.505Z,40.03
2019-03-02T15:40:00.270Z,26.97
2019-03-02T15:42:30.968Z,24.73
2019-03-02T15:45:04.488Z,26.87
2019-03-02T15:47:47.419Z,25.07
2019-03-02T15:50:17.542Z,23.87
2019-03-02T15:52:58.293Z,26.03
2019-03-02T15:55:29.014Z,21.33
2019-03-02T15:58:14.777Z,25.87
2019-03-02T16:00:46.487Z,24.07
2019-03-02T16:03:19.182Z,26.10
2019-03-02T16:05:48.556Z,23.97
2019-03-02T16:08:18.029Z,25.40
2019-03-02T16:11:02.131Z,25.27
2019-03-02T16:13:35.833Z,26.00
2019-03-02T16:16:03.581Z,23.83
2019-03-02T16:18:34.356Z,25.83
2019-03-02T16:21:19.691Z,26.20
2019-03-02T16:23:47.261Z,21.97
2019-03-02T16:26:16.938Z,24.10
2019-03-02T16:28:45.656Z,26.10
2019-03-02T16:31:19.036Z,26.60
2019-03-02T16:33:58.695Z,23.10
2019-03-02T16:36:32.310Z,23.87
2019-03-02T16:39:17.916Z,26.50
2019-03-02T16:41:51.173Z,24.57
2019-03-02T16:44:35.938Z,24.00
2019-03-02T16:47:11.338Z,24.53
2019-03-02T16:49:41.142Z,24.20
2019-03-02T16:52:11.621Z,24.93
2019-03-02T16:54:45.199Z,24.40
2019-03-02T16:57:30.716Z,23.93
2019-03-02T17:00:10.394Z,24.43
2019-03-02T17:02:41.193Z,23.70
2019-03-02T17:05:15.186Z,27.43
2019-03-02T17:07:42.936Z,25.20
2019-03-02T17:10:14.899Z,27.87
2019-03-02T17:12:59.057Z,29.87
2019-03-02T17:15:43.140Z,27.87
2019-03-02T17:18:21.826Z,26.40
2019-03-02T17:20:49.295Z,25.73
2019-03-02T17:23:25.124Z,25.40
2019-03-02T17:25:55.807Z,25.53
2019-03-02T17:28:35.347Z,27.10
2019-03-02T17:31:03.651Z,26.23
2019-03-02T17:33:32.384Z,26.80
2019-03-02T17:36:09.333Z,27.07
2019-03-02T17:38:47.967Z,24.80
2019-03-02T17:41:18.805Z,21.57
2019-03-02T17:43:46.613Z,24.80
2019-03-02T17:46:20.486Z,23.63
2019-03-02T17:48:48.234Z,24.17
2019-03-02T17:51:19.008Z,24.53
2019-03-02T17:53:55.688Z,25.20
2019-03-02T17:56:23.420Z,25.27
2019-03-02T17:59:11.342Z,28.60
2019-03-02T18:01:44.695Z,26.50
2019-03-02T18:04:12.454Z,25.77
2019-03-02T18:06:43.195Z,26.53
2019-03-02T18:09:10.944Z,23.73
2019-03-02T18:11:51.136Z,24.20
2019-03-02T18:14:21.943Z,24.17
2019-03-02T18:16:49.677Z,26.10
2019-03-02T18:19:17.037Z,25.00
2019-03-02T18:21:42.948Z,25.20
2019-03-02T18:24:08.755Z,27.60
2019-03-02T18:26:34.599Z,23.97
2019-03-02T18:29:00.419Z,24.00
2019-03-02T18:31:26.357Z,26.10
2019-03-02T18:33:56.058Z,29.10
2019-03-02T18:36:21.827Z,27.47
2019-03-02T18:38:49.003Z,26.60
2019-03-02T18:41:16.692Z,27.17
2019-03-02T18:43:44.908Z,24.80
2019-03-02T18:46:12.222Z,26.80
2019-03-02T18:48:51.665Z,24.67
2019-03-02T18:51:22.303Z,24.43
2019-03-02T18:53:48.140Z,25.07
2019-03-02T18:56:13.980Z,26.93
2019-03-02T18:58:39.798Z,24.83
2019-03-02T19:01:05.716Z,25.00
2019-03-02T19:03:31.555Z,24.40
2019-03-02T19:05:57.389Z,23.30
2019-03-02T19:08:25.336Z,23.10
2019-03-02T19:10:50.938Z,23.80
2019-03-02T19:13:16.753Z,23.20
2019-03-02T19:15:42.576Z,25.57
2019-03-02T19:18:08.395Z,24.97
2019-03-02T19:20:34.322Z,24.40
2019-03-02T19:23:00.177Z,26.10
2019-03-02T19:25:25.986Z,24.10
2019-03-02T19:27:51.829Z,27.03
2019-03-02T19:30:19.662Z,26.60
2019-03-02T19:32:45.598Z,25.17
2019-03-02T19:35:11.549Z,24.97
2019-03-02T19:37:37.554Z,25.97
2019-03-02T19:40:43.176Z,24.43
2019-03-02T19:43:08.994Z,25.50
2019-03-02T19:45:34.820Z,25.03
2019-03-02T19:48:00.651Z,24.03
2019-03-02T19:50:26.492Z,26.13
2019-03-02T19:52:52.307Z,23.40
2019-03-02T19:55:38.147Z,26.57
2019-03-02T19:58:03.991Z,25.67
2019-03-02T20:01:11.490Z,24.70
2019-03-02T20:07:02.627Z,23.60
2019-03-02T20:09:28.493Z,23.30
2019-03-02T20:11:54.358Z,22.13
2019-03-02T20:14:20.216Z,25.87
2019-03-02T20:16:46.047Z,29.63
2019-03-02T20:19:11.896Z,29.40
2019-03-02T20:21:37.744Z,27.10
2019-03-02T20:24:03.741Z,29.23
2019-03-02T20:26:29.621Z,25.33
2019-03-02T20:28:55.475Z,26.17
2019-03-02T20:31:21.298Z,27.47
2019-03-02T20:33:47.141Z,25.87
2019-03-02T20:36:12.985Z,26.67
2019-03-02T20:38:38.844Z,25.33
2019-03-02T20:41:46.599Z,25.40
2019-03-02T20:44:12.493Z,24.93
2019-03-02T20:46:38.338Z,26.67
2019-03-02T20:49:04.149Z,25.07
2019-03-02T20:51:30.006Z,24.17
2019-03-02T20:53:55.825Z,25.70
2019-03-02T20:56:21.731Z,25.30
2019-03-02T20:58:47.605Z,25.27
2019-03-02T21:01:33.442Z,27.97
2019-03-02T21:03:59.254Z,37.10
2019-03-02T21:06:25.109Z,32.60
2019-03-02T21:08:50.912Z,32.60
2019-03-02T21:11:16.736Z,32.73
2019-03-02T21:13:42.559Z,31.40
2019-03-02T21:16:08.401Z,28.03
2019-03-02T21:18:34.235Z,28.70
2019-03-02T21:21:41.728Z,28.53
2019-03-02T21:24:07.553Z,29.10
2019-03-02T21:26:33.415Z,29.60
2019-03-02T21:28:59.245Z,32.13
2019-03-02T21:31:25.125Z,31.10
2019-03-02T21:33:50.948Z,28.77
2019-03-02T21:36:16.770Z,27.57
2019-03-02T21:38:42.595Z,31.27
2019-03-02T21:41:08.414Z,31.87
2019-03-02T21:43:34.258Z,29.30
2019-03-02T21:46:00.070Z,32.63
2019-03-02T21:48:25.888Z,29.40
2019-03-02T21:51:33.395Z,33.27
2019-03-02T21:54:19.114Z,26.83
2019-03-02T21:56:44.957Z,28.13
2019-03-02T21:59:10.774Z,25.37
2019-03-02T22:01:36.581Z,27.10
2019-03-02T22:06:56.738Z,28.17
2019-03-02T22:09:22.581Z,30.30
2019-03-02T22:11:48.392Z,28.10
2019-03-02T22:14:14.226Z,27.40
2019-03-02T22:16:40.032Z,32.27
2019-03-02T22:19:05.839Z,24.77
2019-03-02T22:21:31.647Z,23.73
2019-03-02T22:23:57.470Z,22.23
2019-03-02T22:26:23.347Z,23.90
2019-03-02T22:28:49.176Z,22.90
2019-03-02T22:31:15.314Z,23.67
2019-03-02T22:33:41.138Z,22.07
2019-03-02T22:36:06.950Z,21.40
2019-03-02T22:38:32.769Z,21.10
2019-03-02T22:40:58.575Z,22.33
2019-03-02T22:43:24.417Z,20.90
2019-03-02T22:45:50.246Z,20.13
2019-03-02T22:48:16.070Z,20.03
2019-03-02T22:50:41.902Z,21.37
2019-03-02T22:53:07.733Z,17.33
2019-03-02T22:55:33.555Z,19.20
2019-03-02T22:57:59.862Z,19.07
2019-03-02T23:00:38.400Z,18.73
2019-03-02T23:03:04.010Z,19.30
2019-03-02T23:05:29.853Z,19.33
2019-03-02T23:07:55.734Z,19.53
2019-03-02T23:10:21.633Z,16.60
2019-03-02T23:12:47.549Z,19.60
2019-03-02T23:15:55.029Z,19.97
2019-03-02T23:18:20.865Z,17.00
2019-03-02T23:20:46.719Z,17.67
2019-03-02T23:23:12.556Z,18.90
2019-03-02T23:25:38.395Z,19.57
2019-03-02T23:28:04.228Z,18.00
2019-03-02T23:30:30.034Z,19.73
2019-03-02T23:32:55.886Z,19.73
2019-03-02T23:35:21.713Z,15.83
2019-03-02T23:37:47.558Z,20.20
2019-03-02T23:40:33.234Z,21.30
2019-03-02T23:43:18.957Z,17.00
2019-03-02T23:45:44.797Z,16.30
2019-03-02T23:48:10.647Z,15.27
2019-03-02T23:50:36.474Z,17.70
2019-03-02T23:53:02.299Z,16.67
2019-03-02T23:55:28.128Z,15.17
2019-03-02T23:57:53.974Z,17.27
